createdAt,value
2018-05-25T00:00:41.856Z,17.90
2018-05-25T00:01:41.824Z,18.20
2018-05-25T00:02:41.846Z,21.20
2018-05-25T00:03:41.859Z,17.10
2018-05-25T00:04:41.893Z,18.00
2018-05-25T00:05:41.896Z,18.20
2018-05-25T00:06:41.959Z,17.80
2018-05-25T00:07:41.932Z,17.90
2018-05-25T00:08:41.943Z,17.80
2018-05-25T00:09:41.962Z,18.70
2018-05-25T00:10:41.980Z,18.30
2018-05-25T00:11:42.000Z,18.60
2018-05-25T00:12:42.014Z,20.10
2018-05-25T00:13:42.025Z,20.50
2018-05-25T00:14:42.050Z,21.20
2018-05-25T00:15:42.073Z,21.10
2018-05-25T00:16:42.099Z,20.20
2018-05-25T00:17:42.096Z,21.60
2018-05-25T00:18:42.167Z,19.60
2018-05-25T00:19:42.134Z,20.50
2018-05-25T00:20:42.142Z,20.20
2018-05-25T00:21:42.159Z,20.40
2018-05-25T00:22:42.186Z,21.10
2018-05-25T00:23:42.197Z,19.90
2018-05-25T00:24:42.228Z,20.00
2018-05-25T00:25:42.231Z,23.40
2018-05-25T00:26:42.249Z,23.00
2018-05-25T00:27:42.262Z,21.10
2018-05-25T00:28:42.278Z,19.80
2018-05-25T00:29:42.301Z,17.40
2018-05-25T00:30:42.314Z,17.40
2018-05-25T00:31:42.331Z,17.90
2018-05-25T00:32:42.345Z,17.90
2018-05-25T00:33:42.362Z,17.00
2018-05-25T00:34:42.385Z,17.70
2018-05-25T00:35:42.396Z,16.60
2018-05-25T00:36:42.481Z,17.60
2018-05-25T00:37:42.429Z,16.50
2018-05-25T00:38:42.453Z,16.60
2018-05-25T00:39:42.465Z,16.90
2018-05-25T00:40:42.484Z,18.00
2018-05-25T00:41:42.496Z,14.60
2018-05-25T00:42:42.518Z,13.90
2018-05-25T00:43:42.529Z,14.40
2018-05-25T00:44:42.550Z,14.20
2018-05-25T00:45:42.566Z,13.20
2018-05-25T00:46:42.585Z,14.10
2018-05-25T00:47:42.648Z,14.70
2018-05-25T00:48:42.678Z,15.10
2018-05-25T00:49:42.635Z,17.80
2018-05-25T00:50:42.652Z,15.10
2018-05-25T00:51:42.665Z,16.20
2018-05-25T00:52:42.688Z,15.90
2018-05-25T00:53:42.739Z,15.90
2018-05-25T00:54:42.723Z,18.10
2018-05-25T00:55:42.739Z,17.10
2018-05-25T00:56:42.755Z,16.30
2018-05-25T00:57:42.767Z,18.20
2018-05-25T00:58:42.786Z,20.80
2018-05-25T00:59:42.876Z,20.30
2018-05-25T01:00:42.826Z,24.80
2018-05-25T01:01:42.838Z,25.30
2018-05-25T01:02:42.858Z,23.40
2018-05-25T01:03:42.877Z,24.70
2018-05-25T01:04:42.887Z,23.70
2018-05-25T01:05:42.950Z,23.10
2018-05-25T01:06:42.922Z,26.50
2018-05-25T01:07:42.940Z,23.40
2018-05-25T01:08:42.955Z,26.10
2018-05-25T01:09:42.977Z,24.40
2018-05-25T01:10:42.986Z,25.20
2018-05-25T01:11:43.007Z,23.50
2018-05-25T01:12:43.027Z,25.70
2018-05-25T01:13:43.038Z,23.90
2018-05-25T01:14:43.059Z,22.70
2018-05-25T01:15:43.078Z,23.90
2018-05-25T01:16:43.087Z,25.60
2018-05-25T01:17:43.111Z,25.10
2018-05-25T01:18:43.120Z,24.00
2018-05-25T01:19:43.141Z,22.90
2018-05-25T01:20:43.162Z,22.50
2018-05-25T01:21:43.171Z,23.20
2018-05-25T01:22:43.190Z,22.70
2018-05-25T01:23:43.261Z,20.50
2018-05-25T01:24:43.221Z,21.50
2018-05-25T01:25:43.240Z,21.40
2018-05-25T01:26:43.266Z,22.90
2018-05-25T01:27:43.276Z,22.70
2018-05-25T01:28:43.292Z,23.50
2018-05-25T01:29:43.361Z,22.20
2018-05-25T01:30:43.327Z,22.70
2018-05-25T01:31:43.338Z,20.70
2018-05-25T01:32:43.360Z,21.90
2018-05-25T01:33:43.379Z,22.90
2018-05-25T01:34:43.394Z,22.00
2018-05-25T01:35:43.411Z,21.80
2018-05-25T01:36:43.422Z,20.90
2018-05-25T01:37:43.446Z,21.50
2018-05-25T01:38:43.462Z,24.00
2018-05-25T01:39:43.476Z,22.90
2018-05-25T01:40:43.496Z,23.80
2018-05-25T01:41:43.557Z,22.40
2018-05-25T01:42:43.522Z,22.50
2018-05-25T01:43:43.540Z,22.90
2018-05-25T01:44:43.566Z,23.50
2018-05-25T01:45:43.576Z,22.00
2018-05-25T01:46:43.590Z,24.20
2018-05-25T01:47:43.664Z,22.00
2018-05-25T01:48:43.625Z,24.40
2018-05-25T01:49:43.639Z,23.80
2018-05-25T01:50:43.660Z,22.40
2018-05-25T01:51:43.679Z,22.00
2018-05-25T01:52:43.690Z,25.70
2018-05-25T01:53:43.765Z,24.60
2018-05-25T01:54:43.727Z,23.50
2018-05-25T01:55:43.747Z,23.90
2018-05-25T01:56:43.761Z,25.00
2018-05-25T01:57:43.776Z,24.20
2018-05-25T01:58:43.793Z,24.40
2018-05-25T01:59:43.861Z,24.20
2018-05-25T02:00:43.833Z,24.00
2018-05-25T02:01:43.854Z,24.60
2018-05-25T02:02:43.872Z,24.40
2018-05-25T02:03:43.879Z,23.70
2018-05-25T02:04:43.896Z,26.20
2018-05-25T02:05:43.920Z,23.30
2018-05-25T02:06:43.931Z,23.50
2018-05-25T02:07:43.948Z,22.50
2018-05-25T02:08:43.965Z,25.10
2018-05-25T02:09:43.986Z,26.00
2018-05-25T02:10:43.995Z,25.40
2018-05-25T02:11:44.071Z,24.10
2018-05-25T02:12:44.028Z,24.50
2018-05-25T02:13:44.052Z,23.50
2018-05-25T02:14:44.071Z,24.20
2018-05-25T02:15:44.087Z,23.50
2018-05-25T02:16:44.113Z,20.70
2018-05-25T02:17:44.167Z,27.40
2018-05-25T02:18:44.131Z,27.90
2018-05-25T02:19:44.150Z,27.50
2018-05-25T02:20:44.166Z,29.10
2018-05-25T02:21:44.190Z,27.70
2018-05-25T02:22:44.200Z,27.30
2018-05-25T02:23:44.274Z,29.20
2018-05-25T02:24:44.231Z,25.20
2018-05-25T02:25:44.257Z,31.90
2018-05-25T02:26:44.273Z,27.20
2018-05-25T02:27:44.284Z,29.90
2018-05-25T02:28:44.301Z,28.10
2018-05-25T02:29:44.367Z,31.50
2018-05-25T02:30:44.379Z,28.30
2018-05-25T02:31:44.354Z,31.80
2018-05-25T02:32:44.367Z,30.80
2018-05-25T02:33:44.394Z,33.30
2018-05-25T02:34:44.408Z,29.60
2018-05-25T02:35:44.478Z,34.40
2018-05-25T02:36:44.439Z,34.60
2018-05-25T02:37:44.453Z,32.80
2018-05-25T02:38:44.588Z,33.80
2018-05-25T02:39:44.489Z,35.40
2018-05-25T02:40:44.509Z,29.80
2018-05-25T02:41:44.581Z,34.20
2018-05-25T02:42:44.572Z,32.00
2018-05-25T02:43:44.558Z,26.80
2018-05-25T02:44:44.575Z,31.20
2018-05-25T02:45:44.594Z,30.50
2018-05-25T02:46:44.607Z,30.50
2018-05-25T02:47:44.679Z,27.70
2018-05-25T02:48:44.714Z,28.10
2018-05-25T02:49:44.658Z,29.70
2018-05-25T02:50:44.680Z,32.10
2018-05-25T02:51:44.693Z,27.30
2018-05-25T02:52:44.712Z,25.40
2018-05-25T02:53:44.783Z,29.10
2018-05-25T02:54:44.741Z,30.60
2018-05-25T02:55:44.763Z,27.50
2018-05-25T02:56:44.778Z,29.40
2018-05-25T02:57:44.795Z,24.70
2018-05-25T02:58:44.815Z,30.10
2018-05-25T02:59:44.879Z,29.10
2018-05-25T03:00:44.850Z,26.40
2018-05-25T03:01:44.864Z,24.80
2018-05-25T03:02:44.888Z,26.40
2018-05-25T03:03:44.900Z,20.60
2018-05-25T03:04:44.920Z,28.20
2018-05-25T03:05:44.986Z,24.20
2018-05-25T03:06:44.955Z,24.70
2018-05-25T03:07:44.965Z,24.40
2018-05-25T03:08:44.999Z,24.90
2018-05-25T03:09:44.999Z,28.90
2018-05-25T03:10:45.021Z,25.00
2018-05-25T03:11:45.099Z,24.70
2018-05-25T03:12:45.058Z,30.00
2018-05-25T03:13:45.162Z,30.90
2018-05-25T03:14:45.094Z,29.80
2018-05-25T03:15:45.105Z,24.50
2018-05-25T03:16:45.130Z,26.70
2018-05-25T03:17:45.193Z,28.20
2018-05-25T03:18:45.153Z,26.20
2018-05-25T03:19:45.233Z,26.00
2018-05-25T03:20:45.189Z,27.20
2018-05-25T03:21:45.206Z,31.90
2018-05-25T03:22:45.222Z,36.30
2018-05-25T03:23:45.299Z,31.10
2018-05-25T03:24:45.260Z,28.60
2018-05-25T03:25:45.339Z,26.20
2018-05-25T03:26:45.293Z,34.40
2018-05-25T03:27:45.315Z,29.90
2018-05-25T03:28:45.324Z,28.60
2018-05-25T03:29:45.475Z,27.70
2018-05-25T03:30:45.363Z,29.00
2018-05-25T03:31:45.395Z,28.30
2018-05-25T03:32:45.396Z,29.90
2018-05-25T03:33:45.418Z,30.20
2018-05-25T03:34:45.426Z,28.30
2018-05-25T03:35:45.456Z,31.90
2018-05-25T03:36:45.470Z,33.80
2018-05-25T03:37:45.484Z,30.60
2018-05-25T03:38:45.495Z,33.40
2018-05-25T03:39:45.513Z,31.80
2018-05-25T03:40:45.548Z,33.50
2018-05-25T03:41:45.561Z,31.60
2018-05-25T03:42:45.569Z,33.20
2018-05-25T03:43:45.583Z,35.40
2018-05-25T03:44:45.623Z,35.50
2018-05-25T03:45:45.614Z,33.80
2018-05-25T03:46:45.636Z,32.10
2018-05-25T03:47:45.651Z,31.20
2018-05-25T03:48:45.666Z,33.40
2018-05-25T03:49:45.684Z,34.20
2018-05-25T03:50:45.761Z,30.30
2018-05-25T03:51:45.718Z,33.20
2018-05-25T03:52:45.739Z,31.20
2018-05-25T03:53:45.801Z,26.90
2018-05-25T03:54:45.772Z,27.10
2018-05-25T03:55:45.793Z,27.80
2018-05-25T03:56:45.830Z,30.10
2018-05-25T03:57:45.823Z,23.70
2018-05-25T03:58:45.836Z,27.70
2018-05-25T03:59:45.903Z,32.60
2018-05-25T04:00:45.872Z,29.40
2018-05-25T04:01:45.894Z,29.90
2018-05-25T04:02:45.947Z,28.80
2018-05-25T04:03:45.927Z,30.20
2018-05-25T04:04:45.948Z,31.20
2018-05-25T04:05:45.959Z,29.20
2018-05-25T04:06:45.976Z,25.70
2018-05-25T04:07:45.992Z,25.80
2018-05-25T04:08:46.016Z,27.70
2018-05-25T04:09:46.024Z,24.60
2018-05-25T04:10:46.042Z,27.70
2018-05-25T04:11:46.115Z,30.30
2018-05-25T04:12:46.076Z,23.90
2018-05-25T04:13:46.094Z,27.40
2018-05-25T04:14:46.175Z,25.90
2018-05-25T04:15:46.127Z,24.70
2018-05-25T04:16:46.152Z,24.90
2018-05-25T04:17:46.217Z,26.30
2018-05-25T04:18:46.179Z,28.80
2018-05-25T04:19:46.197Z,27.40
2018-05-25T04:20:46.214Z,28.90
2018-05-25T04:21:46.232Z,29.60
2018-05-25T04:22:46.258Z,31.80
2018-05-25T04:23:46.319Z,28.20
2018-05-25T04:24:46.284Z,25.50
2018-05-25T04:25:46.306Z,25.90
2018-05-25T04:26:46.315Z,26.40
2018-05-25T04:27:46.340Z,24.80
2018-05-25T04:28:46.355Z,27.10
2018-05-25T04:29:46.426Z,27.80
2018-05-25T04:30:46.383Z,24.90
2018-05-25T04:31:46.402Z,26.60
2018-05-25T04:32:46.423Z,26.90
2018-05-25T04:33:46.498Z,25.90
2018-05-25T04:34:46.454Z,22.90
2018-05-25T04:35:46.527Z,20.40
2018-05-25T04:36:46.493Z,27.30
2018-05-25T04:37:46.510Z,25.40
2018-05-25T04:38:46.530Z,25.30
2018-05-25T04:39:46.555Z,20.60
2018-05-25T04:40:46.560Z,26.60
2018-05-25T04:41:46.571Z,25.30
2018-05-25T04:42:46.595Z,20.20
2018-05-25T04:43:46.606Z,19.40
2018-05-25T04:44:46.629Z,23.40
2018-05-25T04:45:46.642Z,26.60
2018-05-25T04:46:46.670Z,25.30
2018-05-25T04:47:46.678Z,27.90
2018-05-25T04:48:46.692Z,24.00
2018-05-25T04:49:46.752Z,23.50
2018-05-25T04:50:46.739Z,25.40
2018-05-25T04:51:46.743Z,26.00
2018-05-25T04:52:46.758Z,25.90
2018-05-25T04:53:46.827Z,25.80
2018-05-25T04:54:46.798Z,19.20
2018-05-25T04:55:46.812Z,24.10
2018-05-25T04:56:46.833Z,22.20
2018-05-25T04:57:46.846Z,20.20
2018-05-25T04:58:46.919Z,18.40
2018-05-25T04:59:46.882Z,24.20
2018-05-25T05:00:46.896Z,27.50
2018-05-25T05:01:46.913Z,27.80
2018-05-25T05:02:46.928Z,28.50
2018-05-25T05:03:46.945Z,24.30
2018-05-25T05:04:46.973Z,22.40
2018-05-25T05:05:47.037Z,21.80
2018-05-25T05:06:46.998Z,22.40
2018-05-25T05:07:47.017Z,19.50
2018-05-25T05:08:47.035Z,20.60
2018-05-25T05:09:47.051Z,21.00
2018-05-25T05:10:47.080Z,19.50
2018-05-25T05:11:47.090Z,17.20
2018-05-25T05:12:47.102Z,16.70
2018-05-25T05:13:47.123Z,15.00
2018-05-25T05:14:47.155Z,20.40
2018-05-25T05:15:47.159Z,18.80
2018-05-25T05:16:47.253Z,19.60
2018-05-25T05:17:47.187Z,20.10
2018-05-25T05:18:47.210Z,22.40
2018-05-25T05:19:47.222Z,24.10
2018-05-25T05:20:47.236Z,25.60
2018-05-25T05:21:47.252Z,25.20
2018-05-25T05:22:47.367Z,23.50
2018-05-25T05:23:47.340Z,26.20
2018-05-25T05:24:47.304Z,25.60
2018-05-25T05:25:47.321Z,27.70
2018-05-25T05:26:47.338Z,29.00
2018-05-25T05:27:47.363Z,24.20
2018-05-25T05:28:47.385Z,20.40
2018-05-25T05:29:47.444Z,20.20
2018-05-25T05:30:47.408Z,16.90
2018-05-25T05:31:47.423Z,18.00
2018-05-25T05:32:47.444Z,18.50
2018-05-25T05:33:47.462Z,14.40
2018-05-25T05:34:47.478Z,14.60
2018-05-25T05:35:47.543Z,14.80
2018-05-25T05:36:47.510Z,15.40
2018-05-25T05:37:47.526Z,14.80
2018-05-25T05:38:47.548Z,17.90
2018-05-25T05:39:47.567Z,14.70
2018-05-25T05:40:47.582Z,13.50
2018-05-25T05:41:47.722Z,15.10
2018-05-25T05:42:47.610Z,14.00
2018-05-25T05:43:47.630Z,13.80
2018-05-25T05:44:47.644Z,14.30
2018-05-25T05:45:47.666Z,16.10
2018-05-25T05:46:47.686Z,15.10
2018-05-25T05:47:47.817Z,13.50
2018-05-25T05:48:47.711Z,13.60
2018-05-25T05:49:47.729Z,14.30
2018-05-25T05:50:47.745Z,14.20
2018-05-25T05:51:47.764Z,14.00
2018-05-25T05:52:47.785Z,11.40
2018-05-25T05:53:47.850Z,13.30
2018-05-25T05:54:47.813Z,14.10
2018-05-25T05:55:47.838Z,16.60
2018-05-25T05:56:47.847Z,16.20
2018-05-25T05:57:47.873Z,19.10
2018-05-25T05:58:47.890Z,22.30
2018-05-25T05:59:47.906Z,22.40
2018-05-25T06:00:47.925Z,21.80
2018-05-25T06:01:47.937Z,26.30
2018-05-25T06:02:47.954Z,22.80
2018-05-25T06:03:47.973Z,23.60
2018-05-25T06:04:48.043Z,24.90
2018-05-25T06:05:48.054Z,21.40
2018-05-25T06:06:48.073Z,26.00
2018-05-25T06:07:48.039Z,24.90
2018-05-25T06:08:48.063Z,21.80
2018-05-25T06:09:48.071Z,19.60
2018-05-25T06:10:48.096Z,18.10
2018-05-25T06:11:48.161Z,19.60
2018-05-25T06:12:48.130Z,16.60
2018-05-25T06:13:48.146Z,20.40
2018-05-25T06:14:48.158Z,15.70
2018-05-25T06:15:48.174Z,15.40
2018-05-25T06:16:48.191Z,15.80
2018-05-25T06:17:48.259Z,17.00
2018-05-25T06:18:48.265Z,13.60
2018-05-25T06:19:48.238Z,17.10
2018-05-25T06:20:48.262Z,17.50
2018-05-25T06:21:48.282Z,19.70
2018-05-25T06:22:48.301Z,18.40
2018-05-25T06:23:48.362Z,15.30
2018-05-25T06:24:48.328Z,17.90
2018-05-25T06:25:48.345Z,16.20
2018-05-25T06:26:48.366Z,14.00
2018-05-25T06:27:48.383Z,13.10
2018-05-25T06:28:48.393Z,12.70
2018-05-25T06:29:48.468Z,14.40
2018-05-25T06:30:48.495Z,15.20
2018-05-25T06:31:48.446Z,17.10
2018-05-25T06:32:48.467Z,14.30
2018-05-25T06:33:48.478Z,16.80
2018-05-25T06:34:48.542Z,14.40
2018-05-25T06:35:48.567Z,20.30
2018-05-25T06:36:48.533Z,19.90
2018-05-25T06:37:48.547Z,21.40
2018-05-25T06:38:48.572Z,21.10
2018-05-25T06:39:48.589Z,19.50
2018-05-25T06:40:48.602Z,19.60
2018-05-25T06:41:48.667Z,18.10
2018-05-25T06:42:48.647Z,20.40
2018-05-25T06:43:48.658Z,22.20
2018-05-25T06:44:48.668Z,22.70
2018-05-25T06:45:48.687Z,20.90
2018-05-25T06:46:48.703Z,21.50
2018-05-25T06:47:48.777Z,24.10
2018-05-25T06:48:48.736Z,28.20
2018-05-25T06:49:48.766Z,25.10
2018-05-25T06:50:48.777Z,21.10
2018-05-25T06:51:48.793Z,21.00
2018-05-25T06:52:48.809Z,23.40
2018-05-25T06:53:48.878Z,21.30
2018-05-25T06:54:48.839Z,21.20
2018-05-25T06:55:48.863Z,19.70
2018-05-25T06:56:48.873Z,20.30
2018-05-25T06:57:48.927Z,18.50
2018-05-25T06:58:48.911Z,20.30
2018-05-25T06:59:48.979Z,20.20
2018-05-25T07:01:49.048Z,18.80
2018-05-25T07:02:48.981Z,20.10
2018-05-25T07:03:49.001Z,16.50
2018-05-25T07:04:49.023Z,17.60
2018-05-25T07:05:49.092Z,16.30
2018-05-25T07:06:49.051Z,16.50
2018-05-25T07:07:49.099Z,16.10
2018-05-25T07:08:49.090Z,16.50
2018-05-25T07:09:49.104Z,16.90
2018-05-25T07:10:49.130Z,15.80
2018-05-25T07:11:49.199Z,15.70
2018-05-25T07:12:49.160Z,15.60
2018-05-25T07:13:49.177Z,16.20
2018-05-25T07:14:49.197Z,15.00
2018-05-25T07:15:49.219Z,17.10
2018-05-25T07:16:49.233Z,14.00
2018-05-25T07:17:49.313Z,16.20
2018-05-25T07:18:49.270Z,13.30
2018-05-25T07:19:49.287Z,11.50
2018-05-25T07:20:49.304Z,11.50
2018-05-25T07:21:49.324Z,13.70
2018-05-25T07:22:49.341Z,13.70
2018-05-25T07:23:49.410Z,11.40
2018-05-25T07:24:49.376Z,9.80
2018-05-25T07:25:49.399Z,10.60
2018-05-25T07:26:49.463Z,10.40
2018-05-25T07:27:49.435Z,9.40
2018-05-25T07:28:49.450Z,9.10
2018-05-25T07:29:49.559Z,9.50
2018-05-25T07:30:49.496Z,10.60
2018-05-25T07:31:49.508Z,10.40
2018-05-25T07:32:49.521Z,10.50
2018-05-25T07:33:49.543Z,10.60
2018-05-25T07:34:49.562Z,10.50
2018-05-25T07:35:49.628Z,11.60
2018-05-25T07:36:49.595Z,7.60
2018-05-25T07:37:49.611Z,8.30
2018-05-25T07:38:49.632Z,8.30
2018-05-25T07:39:49.672Z,10.90
2018-05-25T07:40:49.670Z,10.70
2018-05-25T07:41:49.734Z,11.00
2018-05-25T07:42:49.699Z,10.50
2018-05-25T07:43:49.720Z,11.10
2018-05-25T07:44:49.771Z,11.20
2018-05-25T07:45:49.755Z,11.70
2018-05-25T07:46:49.786Z,11.00
2018-05-25T07:47:49.844Z,10.00
2018-05-25T07:48:49.818Z,10.40
2018-05-25T07:49:49.837Z,11.60
2018-05-25T07:50:49.888Z,8.50
2018-05-25T07:51:49.873Z,9.00
2018-05-25T07:52:49.882Z,10.10
2018-05-25T07:53:49.952Z,8.30
2018-05-25T07:54:49.921Z,9.80
2018-05-25T07:55:49.943Z,7.90
2018-05-25T07:56:49.962Z,6.60
2018-05-25T07:57:49.977Z,6.80
2018-05-25T07:58:49.997Z,5.20
2018-05-25T07:59:50.017Z,5.90
2018-05-25T08:00:50.034Z,5.80
2018-05-25T08:01:50.054Z,8.20
2018-05-25T08:02:50.074Z,7.80
2018-05-25T08:03:50.093Z,8.20
2018-05-25T08:04:50.113Z,7.00
2018-05-25T08:05:50.180Z,6.50
2018-05-25T08:06:50.145Z,7.40
2018-05-25T08:07:50.161Z,6.70
2018-05-25T08:08:50.179Z,5.50
2018-05-25T08:09:50.204Z,6.30
2018-05-25T08:10:50.216Z,8.20
2018-05-25T08:11:50.294Z,6.70
2018-05-25T08:12:50.259Z,6.40
2018-05-25T08:13:50.279Z,5.00
2018-05-25T08:14:50.301Z,4.10
2018-05-25T08:15:50.310Z,6.10
2018-05-25T08:16:50.334Z,8.30
2018-05-25T08:17:50.399Z,7.90
2018-05-25T08:18:50.367Z,5.30
2018-05-25T08:19:50.394Z,6.00
2018-05-25T08:20:50.408Z,7.70
2018-05-25T08:21:50.531Z,9.50
2018-05-25T08:22:50.442Z,4.90
2018-05-25T08:23:50.465Z,5.70
2018-05-25T08:24:50.480Z,8.00
2018-05-25T08:25:50.499Z,6.90
2018-05-25T08:26:50.519Z,6.80
2018-05-25T08:27:50.535Z,7.40
2018-05-25T08:28:50.556Z,5.00
2018-05-25T08:29:50.627Z,5.70
2018-05-25T08:30:50.590Z,7.90
2018-05-25T08:31:50.625Z,7.50
2018-05-25T08:32:50.632Z,7.70
2018-05-25T08:33:50.653Z,7.30
2018-05-25T08:34:50.668Z,8.20
2018-05-25T08:35:50.740Z,4.80
2018-05-25T08:36:50.711Z,3.30
2018-05-25T08:37:50.751Z,5.50
2018-05-25T08:38:50.746Z,4.70
2018-05-25T08:39:50.773Z,5.10
2018-05-25T08:40:50.790Z,4.30
2018-05-25T08:41:50.853Z,4.50
2018-05-25T08:42:50.824Z,4.80
2018-05-25T08:43:50.880Z,5.80
2018-05-25T08:44:50.863Z,5.60
2018-05-25T08:45:50.884Z,5.40
2018-05-25T08:46:50.904Z,7.10
2018-05-25T08:47:50.932Z,3.90
2018-05-25T08:48:50.949Z,6.30
2018-05-25T08:49:51.032Z,8.90
2018-05-25T08:50:50.982Z,7.60
2018-05-25T08:51:51.005Z,6.10
2018-05-25T08:52:51.019Z,4.80
2018-05-25T08:53:51.135Z,5.90
2018-05-25T08:54:51.060Z,5.60
2018-05-25T08:55:51.129Z,4.90
2018-05-25T08:56:51.104Z,4.10
2018-05-25T08:57:51.123Z,7.10
2018-05-25T08:58:51.138Z,5.90
2018-05-25T08:59:51.452Z,4.60
2018-05-25T09:00:51.173Z,4.70
2018-05-25T09:01:51.199Z,5.60
2018-05-25T09:02:51.368Z,5.10
2018-05-25T09:03:51.353Z,4.50
2018-05-25T09:04:51.398Z,3.50
2018-05-25T09:05:51.460Z,5.10
2018-05-25T09:06:51.446Z,9.90
2018-05-25T09:07:51.351Z,6.50
2018-05-25T09:08:51.339Z,7.80
2018-05-25T09:09:51.351Z,7.30
2018-05-25T09:10:51.379Z,5.50
2018-05-25T09:11:51.445Z,6.40
2018-05-25T09:12:51.483Z,7.20
2018-05-25T09:13:51.455Z,8.50
2018-05-25T09:14:51.453Z,9.80
2018-05-25T09:15:51.476Z,8.20
2018-05-25T09:16:51.495Z,7.90
2018-05-25T09:17:51.515Z,7.90
2018-05-25T09:18:51.602Z,8.00
2018-05-25T09:19:51.552Z,6.60
2018-05-25T09:20:51.570Z,6.10
2018-05-25T09:21:51.709Z,5.80
2018-05-25T09:22:51.608Z,7.40
2018-05-25T09:23:51.629Z,8.10
2018-05-25T09:24:51.644Z,7.90
2018-05-25T09:25:51.667Z,7.30
2018-05-25T09:26:51.692Z,6.70
2018-05-25T09:27:51.704Z,6.90
2018-05-25T09:28:51.721Z,7.30
2018-05-25T09:29:51.787Z,7.80
2018-05-25T09:30:51.800Z,9.00
2018-05-25T09:31:51.780Z,8.10
2018-05-25T09:32:51.802Z,8.20
2018-05-25T09:33:51.829Z,7.20
2018-05-25T09:34:51.841Z,7.00
2018-05-25T09:35:51.919Z,7.30
2018-05-25T09:36:51.880Z,7.50
2018-05-25T09:37:51.897Z,7.30
2018-05-25T09:38:51.923Z,13.00
2018-05-25T09:39:51.953Z,7.80
2018-05-25T09:40:51.966Z,7.50
2018-05-25T09:41:52.078Z,8.90
2018-05-25T09:42:52.007Z,10.10
2018-05-25T09:43:52.020Z,9.40
2018-05-25T09:44:52.044Z,9.20
2018-05-25T09:45:52.070Z,9.30
2018-05-25T09:46:52.090Z,8.60
2018-05-25T09:47:52.101Z,8.40
2018-05-25T09:48:52.174Z,7.30
2018-05-25T09:49:52.143Z,7.80
2018-05-25T09:50:52.166Z,7.70
2018-05-25T09:51:52.252Z,8.80
2018-05-25T09:52:52.199Z,8.40
2018-05-25T09:53:52.285Z,8.40
2018-05-25T09:54:52.239Z,8.50
2018-05-25T09:55:52.258Z,9.50
2018-05-25T09:56:52.278Z,10.20
2018-05-25T09:57:52.300Z,11.10
2018-05-25T09:58:52.322Z,9.70
2018-05-25T09:59:52.337Z,8.40
2018-05-25T10:00:52.355Z,7.50
2018-05-25T10:01:52.378Z,7.40
2018-05-25T10:02:52.398Z,7.20
2018-05-25T10:03:52.415Z,7.00
2018-05-25T10:04:52.435Z,6.40
2018-05-25T10:05:52.510Z,6.20
2018-05-25T10:06:52.475Z,7.80
2018-05-25T10:07:52.497Z,8.80
2018-05-25T10:08:52.517Z,8.70
2018-05-25T10:09:52.536Z,8.10
2018-05-25T10:10:52.614Z,7.50
2018-05-25T10:11:52.625Z,8.80
2018-05-25T10:12:52.597Z,8.10
2018-05-25T10:13:52.618Z,7.80
2018-05-25T10:14:52.637Z,7.10
2018-05-25T10:15:52.663Z,8.70
2018-05-25T10:16:52.674Z,8.60
2018-05-25T10:17:52.790Z,5.60
2018-05-25T10:18:52.722Z,5.60
2018-05-25T10:19:52.742Z,5.40
2018-05-25T10:20:52.763Z,4.80
2018-05-25T10:21:52.783Z,5.00
2018-05-25T10:22:52.816Z,6.30
2018-05-25T10:23:52.823Z,6.90
2018-05-25T10:24:52.838Z,7.70
2018-05-25T10:25:52.861Z,6.90
2018-05-25T10:26:52.883Z,6.30
2018-05-25T10:27:52.904Z,6.20
2018-05-25T10:28:52.923Z,8.10
2018-05-25T10:29:52.998Z,7.60
2018-05-25T10:30:52.970Z,6.70
2018-05-25T10:31:52.989Z,6.40
2018-05-25T10:32:53.009Z,6.50
2018-05-25T10:33:53.026Z,7.70
2018-05-25T10:34:53.050Z,6.90
2018-05-25T10:35:53.121Z,7.10
2018-05-25T10:36:53.090Z,8.40
2018-05-25T10:37:53.107Z,8.50
2018-05-25T10:38:53.125Z,7.00
2018-05-25T10:39:53.147Z,6.90
2018-05-25T10:40:53.162Z,7.80
2018-05-25T10:41:53.235Z,5.90
2018-05-25T10:42:53.209Z,6.60
2018-05-25T10:43:53.226Z,5.40
2018-05-25T10:44:53.249Z,5.30
2018-05-25T10:45:53.265Z,5.50
2018-05-25T10:46:53.288Z,5.60
2018-05-25T10:47:53.370Z,5.90
2018-05-25T10:48:53.337Z,6.40
2018-05-25T10:49:53.348Z,5.90
2018-05-25T10:50:53.374Z,5.20
2018-05-25T10:51:53.410Z,4.90
2018-05-25T10:52:53.419Z,5.00
2018-05-25T10:53:53.482Z,4.90
2018-05-25T10:54:53.456Z,8.40
2018-05-25T10:55:53.517Z,5.50
2018-05-25T10:56:53.491Z,5.10
2018-05-25T10:57:53.526Z,5.30
2018-05-25T10:58:53.539Z,6.10
2018-05-25T10:59:53.614Z,5.50
2018-05-25T11:00:53.577Z,5.10
2018-05-25T11:01:53.598Z,4.10
2018-05-25T11:02:53.620Z,3.50
2018-05-25T11:04:53.667Z,3.60
2018-05-25T11:05:53.739Z,4.00
2018-05-25T11:06:53.706Z,3.60
2018-05-25T11:07:53.729Z,4.20
2018-05-25T11:08:53.750Z,4.90
2018-05-25T11:09:53.839Z,4.90
2018-05-25T11:10:53.793Z,5.50
2018-05-25T11:11:53.867Z,6.10
2018-05-25T11:12:53.841Z,5.70
2018-05-25T11:13:53.861Z,5.60
2018-05-25T11:14:53.882Z,5.50
2018-05-25T11:15:53.949Z,5.80
2018-05-25T11:16:53.926Z,5.60
2018-05-25T11:17:53.996Z,5.10
2018-05-25T11:18:53.966Z,4.70
2018-05-25T11:19:53.991Z,4.70
2018-05-25T11:20:54.017Z,4.40
2018-05-25T11:21:54.082Z,5.10
2018-05-25T11:22:54.061Z,7.10
2018-05-25T11:23:54.082Z,6.50
2018-05-25T11:24:54.098Z,4.60
2018-05-25T11:25:54.119Z,4.60
2018-05-25T11:26:54.140Z,4.60
2018-05-25T11:27:54.189Z,7.40
2018-05-25T11:28:54.183Z,5.10
2018-05-25T11:29:54.256Z,4.60
2018-05-25T11:30:54.235Z,4.90
2018-05-25T11:31:54.252Z,4.70
2018-05-25T11:32:54.269Z,7.80
2018-05-25T11:33:54.316Z,4.60
2018-05-25T11:34:54.324Z,4.40
2018-05-25T11:35:54.389Z,3.90
2018-05-25T11:36:54.357Z,4.20
2018-05-25T11:37:54.389Z,7.30
2018-05-25T11:38:54.404Z,4.50
2018-05-25T11:39:54.446Z,4.20
2018-05-25T11:40:54.451Z,4.10
2018-05-25T11:41:54.478Z,3.80
2018-05-25T11:42:54.493Z,4.10
2018-05-25T11:43:54.520Z,4.50
2018-05-25T11:44:54.538Z,5.00
2018-05-25T11:45:54.570Z,4.30
2018-05-25T11:46:54.596Z,4.60
2018-05-25T11:47:54.663Z,4.00
2018-05-25T11:48:54.633Z,4.20
2018-05-25T11:49:54.661Z,4.50
2018-05-25T11:50:54.681Z,4.20
2018-05-25T11:51:54.703Z,4.60
2018-05-25T11:52:54.731Z,5.10
2018-05-25T11:53:54.797Z,4.50
2018-05-25T11:54:54.772Z,4.10
2018-05-25T11:55:54.791Z,6.20
2018-05-25T11:56:54.816Z,4.70
2018-05-25T11:57:54.843Z,5.60
2018-05-25T11:58:54.867Z,4.60
2018-05-25T11:59:54.937Z,4.30
2018-05-25T12:00:54.906Z,4.60
2018-05-25T12:01:54.994Z,4.70
2018-05-25T12:02:54.957Z,4.60
2018-05-25T12:03:54.989Z,5.00
2018-05-25T12:04:54.997Z,4.70
2018-05-25T12:05:55.019Z,4.70
2018-05-25T12:06:55.040Z,4.60
2018-05-25T12:07:55.071Z,4.40
2018-05-25T12:08:55.090Z,4.50
2018-05-25T12:09:55.158Z,4.40
2018-05-25T12:10:55.137Z,4.70
2018-05-25T12:11:55.211Z,5.10
2018-05-25T12:12:55.173Z,4.80
2018-05-25T12:13:55.198Z,5.00
2018-05-25T12:14:55.221Z,4.90
2018-05-25T12:15:55.272Z,4.60
2018-05-25T12:16:55.265Z,4.70
2018-05-25T12:17:55.288Z,5.20
2018-05-25T12:18:55.314Z,4.70
2018-05-25T12:19:55.334Z,5.00
2018-05-25T12:20:55.349Z,5.00
2018-05-25T12:21:55.378Z,5.80
2018-05-25T12:22:55.395Z,5.20
2018-05-25T12:23:55.420Z,5.50
2018-05-25T12:24:55.440Z,5.30
2018-05-25T12:25:55.461Z,5.40
2018-05-25T12:26:55.482Z,6.70
2018-05-25T12:27:55.501Z,5.30
2018-05-25T12:28:55.531Z,5.70
2018-05-25T12:29:55.552Z,6.20
2018-05-25T12:30:55.573Z,5.70
2018-05-25T12:31:55.587Z,5.10
2018-05-25T12:32:55.612Z,5.20
2018-05-25T12:33:55.632Z,5.40
2018-05-25T12:34:55.657Z,5.50
2018-05-25T12:35:55.726Z,5.40
2018-05-25T12:36:55.695Z,6.20
2018-05-25T12:37:55.717Z,5.50
2018-05-25T12:38:55.733Z,6.10
2018-05-25T12:39:55.753Z,6.40
2018-05-25T12:40:55.824Z,6.40
2018-05-25T12:42:55.815Z,6.10
2018-05-25T12:43:55.836Z,6.70
2018-05-25T12:44:55.853Z,6.20
2018-05-25T12:45:55.880Z,6.50
2018-05-25T12:46:55.955Z,7.00
2018-05-25T12:47:55.918Z,6.20
2018-05-25T12:48:55.939Z,6.50
2018-05-25T12:49:55.963Z,6.40
2018-05-25T12:50:55.980Z,6.10
2018-05-25T12:51:56.000Z,6.70
2018-05-25T12:52:56.015Z,6.60
2018-05-25T12:53:56.040Z,6.20
2018-05-25T12:54:56.065Z,6.10
2018-05-25T12:55:56.096Z,5.80
2018-05-25T12:56:56.099Z,6.30
2018-05-25T12:57:56.120Z,5.90
2018-05-25T12:58:56.193Z,6.10
2018-05-25T12:59:56.161Z,5.60
2018-05-25T13:00:56.181Z,6.10
2018-05-25T13:01:56.205Z,6.00
2018-05-25T13:02:56.227Z,6.20
2018-05-25T13:03:56.244Z,6.10
2018-05-25T13:04:56.318Z,6.70
2018-05-25T13:05:56.285Z,6.20